Time;durP1;ratioP1;P1;durP2;ratioP2;P2;SDS_P1;SDS_P2;PMS_P1;PMS_P2;Temp;Humidity;BMP_temperature;BMP_pressure;BME280_temperature;BME280_humidity;BME280_pressure;Samples;Min_cycle;Max_cycle;Signal;HPM_P1;HPM_P2
2021/09/19 00:01:01;;;;;;;8.98;3.78;;;;;;;;;;4877873;29;20104;-59
2021/09/19 00:03:27;;;;;;;6.88;3.72;;;;;;;;;;4877630;29;20610;-59
2021/09/19 00:05:53;;;;;;;7.72;3.58;;;;;;;;;;4877891;29;20071;-59
2021/09/19 00:08:20;;;;;;;8.38;4.35;;;;;;;;;;4877465;29;20045;-59
2021/09/19 00:10:46;;;;;;;12.65;4.28;;;;;;;;;;4877765;29;20035;-60
2021/09/19 00:13:12;;;;;;;9.48;4.07;;;;;;;;;;4877722;29;20041;-58
2021/09/19 00:15:38;;;;;;;9.88;4.18;;;;;;;;;;4877879;29;20032;-60
2021/09/19 00:18:04;;;;;;;9.48;4.03;;;;;;;;;;4877932;29;20037;-59
2021/09/19 00:20:31;;;;;;;6.63;4.13;;;;;;;;;;4877970;29;20115;-59
2021/09/19 00:22:57;;;;;;;9.45;4.30;;;;;;;;;;4877623;29;20065;-58
2021/09/19 00:25:23;;;;;;;6.05;4.05;;;;;;;;;;4877893;29;20029;-60
2021/09/19 00:27:49;;;;;;;8.13;4.28;;;;;;;;;;4877518;29;20092;-59
2021/09/19 00:30:15;;;;;;;7.43;4.35;;;;;;;;;;4877597;29;20029;-59
2021/09/19 00:32:41;;;;;;;6.82;4.10;;;;;;;;;;4877379;29;20129;-59
2021/09/19 00:35:08;;;;;;;7.57;3.42;;;;;;;;;;4877706;29;20436;-59
2021/09/19 00:37:34;;;;;;;5.43;3.50;;;;;;;;;;4877556;29;20043;-61
2021/09/19 00:40:00;;;;;;;6.43;3.40;;;;;;;;;;4877253;29;20109;-58
2021/09/19 00:42:27;;;;;;;6.30;3.90;;;;;;;;;;4877422;29;20033;-60
2021/09/19 00:44:56;;;;;;;7.43;3.58;;;;;;;;;;4877434;29;20256;-59
2021/09/19 00:47:22;;;;;;;5.78;3.72;;;;;;;;;;4876970;29;20033;-60
2021/09/19 00:49:48;;;;;;;5.65;3.80;;;;;;;;;;4877352;29;20021;-60
2021/09/19 00:52:15;;;;;;;6.25;3.83;;;;;;;;;;4877247;29;20507;-60
2021/09/19 00:54:42;;;;;;;6.88;3.70;;;;;;;;;;4860451;29;20394;-59
2021/09/19 00:57:08;;;;;;;7.50;3.50;;;;;;;;;;4877269;29;20040;-59
2021/09/19 00:59:38;;;;;;;6.18;3.58;;;;;;;;;;4877306;29;20029;-60
2021/09/19 01:02:04;;;;;;;5.95;3.60;;;;;;;;;;4877331;29;20040;-60
2021/09/19 01:04:31;;;;;;;6.32;3.70;;;;;;;;;;4877433;29;20029;-60
2021/09/19 01:06:57;;;;;;;5.88;3.70;;;;;;;;;;4876791;29;20040;-61
2021/09/19 01:09:23;;;;;;;23.60;4.13;;;;;;;;;;4877109;29;20068;-60
2021/09/19 01:11:49;;;;;;;5.20;3.22;;;;;;;;;;4876940;29;20121;-61
2021/09/19 01:14:16;;;;;;;7.05;4.38;;;;;;;;;;4877086;29;20396;-60
2021/09/19 01:16:43;;;;;;;5.18;3.45;;;;;;;;;;4877071;29;20040;-61
2021/09/19 01:19:14;;;;;;;5.03;3.28;;;;;;;;;;4876935;29;20025;-60
2021/09/19 01:21:41;;;;;;;5.95;3.25;;;;;;;;;;4876944;29;20025;-61
2021/09/19 01:24:07;;;;;;;7.28;3.70;;;;;;;;;;4876944;29;20108;-60
2021/09/19 01:26:33;;;;;;;6.93;3.45;;;;;;;;;;4877185;29;20113;-64
2021/09/19 01:28:59;;;;;;;4.90;3.13;;;;;;;;;;4876382;29;20045;-60
2021/09/19 01:31:25;;;;;;;8.45;3.40;;;;;;;;;;4876561;29;20466;-61
2021/09/19 01:33:51;;;;;;;6.13;3.25;;;;;;;;;;4876881;29;20061;-61
2021/09/19 01:36:18;;;;;;;5.65;3.47;;;;;;;;;;4877024;29;20056;-59
2021/09/19 01:38:44;;;;;;;4.95;3.15;;;;;;;;;;4876446;29;20093;-59
2021/09/19 01:41:16;;;;;;;8.05;3.78;;;;;;;;;;4859880;29;20802;-60
2021/09/19 01:43:42;;;;;;;5.10;3.40;;;;;;;;;;4876878;29;20025;-60
2021/09/19 01:46:08;;;;;;;5.63;3.20;;;;;;;;;;4876553;29;20088;-59
2021/09/19 01:48:37;;;;;;;5.32;3.25;;;;;;;;;;4876986;29;20023;-59
2021/09/19 01:51:04;;;;;;;4.13;2.80;;;;;;;;;;4878300;29;20033;-59
2021/09/19 01:53:30;;;;;;;6.35;3.33;;;;;;;;;;4880274;29;20040;-59
2021/09/19 01:55:56;;;;;;;4.93;3.08;;;;;;;;;;4880309;29;20032;-60
2021/09/19 01:58:23;;;;;;;7.90;3.50;;;;;;;;;;4880360;29;20032;-59
2021/09/19 02:00:49;;;;;;;6.60;3.38;;;;;;;;;;4880318;29;20029;-60
2021/09/19 02:03:17;;;;;;;6.35;3.20;;;;;;;;;;4881854;29;20035;-58
2021/09/19 02:05:43;;;;;;;5.63;3.67;;;;;;;;;;4881374;29;20036;-59
2021/09/19 02:08:09;;;;;;;6.53;3.92;;;;;;;;;;4879752;29;20057;-59
2021/09/19 02:10:35;;;;;;;4.82;3.25;;;;;;;;;;4879997;29;20093;-60
2021/09/19 02:13:01;;;;;;;7.35;3.28;;;;;;;;;;4879991;29;20379;-59
2021/09/19 02:15:27;;;;;;;5.65;3.15;;;;;;;;;;4879732;29;20466;-59
2021/09/19 02:17:53;;;;;;;9.60;3.35;;;;;;;;;;4880057;29;20033;-58
2021/09/19 02:20:19;;;;;;;6.57;3.47;;;;;;;;;;4880139;29;20021;-61
2021/09/19 02:22:46;;;;;;;5.60;3.45;;;;;;;;;;4879844;29;20033;-60
2021/09/19 02:25:12;;;;;;;7.90;3.50;;;;;;;;;;4879917;29;20025;-61
2021/09/19 02:27:39;;;;;;;5.30;3.58;;;;;;;;;;4879728;29;20046;-59
2021/09/19 02:30:06;;;;;;;6.97;3.70;;;;;;;;;;4879620;29;20363;-60
2021/09/19 02:32:32;;;;;;;6.35;3.65;;;;;;;;;;4879426;29;20059;-59
2021/09/19 02:34:58;;;;;;;7.20;3.58;;;;;;;;;;4879567;29;20363;-59
2021/09/19 02:37:25;;;;;;;7.38;3.58;;;;;;;;;;4879733;29;20045;-60
2021/09/19 02:39:51;;;;;;;4.28;3.05;;;;;;;;;;4879663;29;20387;-60
2021/09/19 02:42:17;;;;;;;5.78;3.42;;;;;;;;;;4879291;29;20385;-59
2021/09/19 02:44:43;;;;;;;6.13;3.60;;;;;;;;;;4879324;29;20052;-58
2021/09/19 02:47:10;;;;;;;7.68;3.88;;;;;;;;;;4879210;29;20057;-61
2021/09/19 02:49:36;;;;;;;7.70;3.15;;;;;;;;;;4879394;29;20430;-60
2021/09/19 02:52:02;;;;;;;4.85;3.10;;;;;;;;;;4879116;29;20397;-60
2021/09/19 02:54:28;;;;;;;4.97;3.10;;;;;;;;;;4879221;29;20021;-60
2021/09/19 02:56:54;;;;;;;6.57;3.42;;;;;;;;;;4879177;29;20037;-59
2021/09/19 02:59:20;;;;;;;5.07;3.13;;;;;;;;;;4879250;29;20435;-59
2021/09/19 03:01:46;;;;;;;9.40;3.90;;;;;;;;;;4878704;29;20036;-59
2021/09/19 03:04:12;;;;;;;5.57;3.42;;;;;;;;;;4879318;29;20112;-59
2021/09/19 03:06:38;;;;;;;5.57;3.65;;;;;;;;;;4879128;29;20033;-59
2021/09/19 03:09:04;;;;;;;4.63;3.45;;;;;;;;;;4878802;29;20045;-59
2021/09/19 03:11:31;;;;;;;7.30;3.85;;;;;;;;;;4879055;29;20029;-60
2021/09/19 03:13:57;;;;;;;6.00;3.58;;;;;;;;;;4878936;29;20044;-61
2021/09/19 03:16:23;;;;;;;5.32;3.33;;;;;;;;;;4879011;29;20130;-59
2021/09/19 03:18:49;;;;;;;6.00;3.72;;;;;;;;;;4878881;29;20553;-60
2021/09/19 03:21:16;;;;;;;5.40;3.42;;;;;;;;;;4878930;29;20052;-59
2021/09/19 03:23:42;;;;;;;6.97;3.30;;;;;;;;;;4878483;29;20057;-59
2021/09/19 03:26:08;;;;;;;6.22;3.20;;;;;;;;;;4878928;29;20033;-59
2021/09/19 03:28:34;;;;;;;6.28;3.63;;;;;;;;;;4878794;29;20537;-58
2021/09/19 03:31:00;;;;;;;5.38;3.17;;;;;;;;;;4878701;29;20390;-58
2021/09/19 03:33:26;;;;;;;6.38;3.42;;;;;;;;;;4878960;29;20393;-59
2021/09/19 03:35:52;;;;;;;16.10;10.32;;;;;;;;;;4878533;29;20021;-60
2021/09/19 03:38:18;;;;;;;11.18;6.57;;;;;;;;;;4878505;29;20037;-59
2021/09/19 03:40:44;;;;;;;5.75;3.65;;;;;;;;;;4878516;29;20070;-59
2021/09/19 03:43:10;;;;;;;9.20;5.60;;;;;;;;;;4878284;29;20029;-58
2021/09/19 03:45:36;;;;;;;8.80;4.68;;;;;;;;;;4878428;29;20021;-59
2021/09/19 03:48:07;;;;;;;6.97;4.15;;;;;;;;;;4878265;29;20112;-61
2021/09/19 03:50:33;;;;;;;6.00;3.42;;;;;;;;;;4878511;29;20044;-59
2021/09/19 03:53:00;;;;;;;5.25;3.22;;;;;;;;;;4877987;29;20093;-60
2021/09/19 03:55:26;;;;;;;5.32;3.20;;;;;;;;;;4878351;29;20025;-59
2021/09/19 03:57:52;;;;;;;5.47;3.53;;;;;;;;;;4878234;29;20029;-59
2021/09/19 04:00:19;;;;;;;6.75;3.97;;;;;;;;;;4878294;29;20032;-60
2021/09/19 04:02:45;;;;;;;8.60;3.65;;;;;;;;;;4878060;29;20032;-60
2021/09/19 04:05:12;;;;;;;7.85;3.90;;;;;;;;;;4878004;29;20029;-59
2021/09/19 04:07:38;;;;;;;6.15;3.72;;;;;;;;;;4877708;29;20421;-59
2021/09/19 04:10:05;;;;;;;6.10;3.47;;;;;;;;;;4877901;29;20049;-60
2021/09/19 04:12:31;;;;;;;6.70;4.20;;;;;;;;;;4877345;29;20036;-59
2021/09/19 04:14:57;;;;;;;6.47;3.75;;;;;;;;;;4877484;29;20400;-59
2021/09/19 04:17:23;;;;;;;8.23;4.20;;;;;;;;;;4877835;29;20107;-59
2021/09/19 04:19:49;;;;;;;5.88;3.72;;;;;;;;;;4877904;29;20033;-59
2021/09/19 04:22:15;;;;;;;7.60;4.25;;;;;;;;;;4877482;29;20029;-60
2021/09/19 04:24:41;;;;;;;8.82;4.15;;;;;;;;;;4877832;29;20030;-60
2021/09/19 04:27:07;;;;;;;7.55;4.30;;;;;;;;;;4877427;29;20386;-60
2021/09/19 04:29:37;;;;;;;7.85;4.25;;;;;;;;;;4877712;29;20032;-59
2021/09/19 04:32:03;;;;;;;10.73;5.15;;;;;;;;;;4877656;29;20064;-63
2021/09/19 04:34:30;;;;;;;8.85;4.60;;;;;;;;;;4877739;29;20058;-59
2021/09/19 04:36:56;;;;;;;9.10;4.97;;;;;;;;;;4877512;29;20057;-58
2021/09/19 04:39:22;;;;;;;10.77;4.80;;;;;;;;;;4877427;29;20393;-59
2021/09/19 04:41:48;;;;;;;7.22;5.00;;;;;;;;;;4877365;29;20033;-59
2021/09/19 04:44:15;;;;;;;23.20;10.35;;;;;;;;;;4877378;29;20044;-60
2021/09/19 04:46:41;;;;;;;13.32;6.47;;;;;;;;;;4877230;29;20028;-59
2021/09/19 04:49:07;;;;;;;11.50;6.07;;;;;;;;;;4877455;29;20025;-59
2021/09/19 04:51:33;;;;;;;10.40;5.85;;;;;;;;;;4877469;29;20041;-59
2021/09/19 04:53:59;;;;;;;12.88;6.72;;;;;;;;;;4877292;29;20065;-59
2021/09/19 04:56:26;;;;;;;13.38;7.10;;;;;;;;;;4877373;29;20398;-58
2021/09/19 04:58:52;;;;;;;12.82;6.20;;;;;;;;;;4877315;29;20044;-58
2021/09/19 05:01:18;;;;;;;12.02;6.32;;;;;;;;;;4877105;29;20029;-58
2021/09/19 05:03:44;;;;;;;20.65;9.45;;;;;;;;;;4877328;29;20029;-58
2021/09/19 05:06:10;;;;;;;12.77;6.85;;;;;;;;;;4877282;29;20029;-59
2021/09/19 05:08:36;;;;;;;17.23;6.50;;;;;;;;;;4876967;29;20088;-58
2021/09/19 05:11:02;;;;;;;8.45;6.07;;;;;;;;;;4877416;29;20045;-58
2021/09/19 05:13:29;;;;;;;13.50;6.22;;;;;;;;;;4877030;29;20084;-59
2021/09/19 05:15:55;;;;;;;14.98;7.80;;;;;;;;;;4877037;29;20445;-59
2021/09/19 05:18:21;;;;;;;13.55;7.10;;;;;;;;;;4877150;29;20116;-59
2021/09/19 05:20:47;;;;;;;14.02;7.00;;;;;;;;;;4877091;29;20040;-58
2021/09/19 05:23:13;;;;;;;18.20;6.45;;;;;;;;;;4876944;29;20104;-59
2021/09/19 05:25:40;;;;;;;11.38;7.03;;;;;;;;;;4880178;29;20042;-59
2021/09/19 05:28:06;;;;;;;15.13;6.35;;;;;;;;;;4880574;29;20056;-60
2021/09/19 05:30:32;;;;;;;11.35;7.03;;;;;;;;;;4880623;29;20032;-60
2021/09/19 05:32:58;;;;;;;11.77;6.80;;;;;;;;;;4880528;29;20041;-59
2021/09/19 05:35:24;;;;;;;14.73;7.55;;;;;;;;;;4880814;29;20084;-59
2021/09/19 05:37:50;;;;;;;12.23;7.15;;;;;;;;;;4880691;29;20449;-59
2021/09/19 05:40:17;;;;;;;11.75;6.97;;;;;;;;;;4880364;29;20033;-59
2021/09/19 05:42:43;;;;;;;13.32;6.97;;;;;;;;;;4879919;29;20029;-58
2021/09/19 05:45:09;;;;;;;13.35;7.13;;;;;;;;;;4880212;29;20115;-58
2021/09/19 05:47:35;;;;;;;13.18;7.82;;;;;;;;;;4880133;29;20031;-57
2021/09/19 05:50:02;;;;;;;11.98;7.80;;;;;;;;;;4880413;29;20392;-58
2021/09/19 05:52:28;;;;;;;13.52;8.38;;;;;;;;;;4879568;29;20072;-59
2021/09/19 05:54:54;;;;;;;13.20;7.78;;;;;;;;;;4879980;29;20489;-59
2021/09/19 05:57:21;;;;;;;15.00;8.43;;;;;;;;;;4880178;29;20036;-60
2021/09/19 05:59:47;;;;;;;16.73;8.30;;;;;;;;;;4880000;29;20024;-59
2021/09/19 06:02:13;;;;;;;13.30;8.52;;;;;;;;;;4879571;29;20061;-59
2021/09/19 06:04:40;;;;;;;14.07;8.60;;;;;;;;;;4880198;29;20035;-59
2021/09/19 06:07:06;;;;;;;17.75;9.57;;;;;;;;;;4879561;29;20044;-60
2021/09/19 06:09:32;;;;;;;17.13;8.88;;;;;;;;;;4879738;29;20035;-60
2021/09/19 06:11:58;;;;;;;15.15;8.90;;;;;;;;;;4879641;29;20041;-59
2021/09/19 06:14:24;;;;;;;12.05;7.72;;;;;;;;;;4878806;29;20055;-60
2021/09/19 06:16:50;;;;;;;13.32;8.23;;;;;;;;;;4859816;29;20040;-58
2021/09/19 06:19:16;;;;;;;10.93;7.50;;;;;;;;;;4879750;29;20122;-60
2021/09/19 06:21:42;;;;;;;11.50;6.68;;;;;;;;;;4879850;29;20053;-62
2021/09/19 06:24:08;;;;;;;12.75;7.57;;;;;;;;;;4879462;29;20032;-60
2021/09/19 06:26:34;;;;;;;9.70;6.88;;;;;;;;;;4879414;29;20042;-59
2021/09/19 06:29:00;;;;;;;11.80;6.80;;;;;;;;;;4879399;29;20077;-59
2021/09/19 06:31:26;;;;;;;9.73;6.53;;;;;;;;;;4880024;29;20017;-59
2021/09/19 06:33:52;;;;;;;8.35;5.80;;;;;;;;;;4879135;29;20120;-57
2021/09/19 06:36:18;;;;;;;11.25;5.78;;;;;;;;;;4878715;29;20025;-59
2021/09/19 06:38:44;;;;;;;9.40;5.82;;;;;;;;;;4878863;29;20085;-59
2021/09/19 06:41:10;;;;;;;7.32;4.40;;;;;;;;;;4879252;29;20025;-60
2021/09/19 06:43:36;;;;;;;5.18;2.80;;;;;;;;;;4879040;29;20085;-61
2021/09/19 06:46:02;;;;;;;7.57;3.67;;;;;;;;;;4879442;29;20068;-61
2021/09/19 06:48:28;;;;;;;3.90;2.50;;;;;;;;;;4879170;29;20029;-59
2021/09/19 06:50:54;;;;;;;4.63;3.10;;;;;;;;;;4862315;29;20061;-60
2021/09/19 06:53:20;;;;;;;6.68;3.28;;;;;;;;;;4878246;29;20064;-60
2021/09/19 06:55:46;;;;;;;6.22;3.63;;;;;;;;;;4878195;29;20040;-60
2021/09/19 06:58:12;;;;;;;6.30;3.90;;;;;;;;;;4878405;29;20037;-60
2021/09/19 07:00:38;;;;;;;5.88;3.55;;;;;;;;;;4862228;29;20475;-60
2021/09/19 07:03:04;;;;;;;5.93;4.07;;;;;;;;;;4878682;29;20071;-60
2021/09/19 07:05:30;;;;;;;6.53;4.05;;;;;;;;;;4878505;29;20049;-59
2021/09/19 07:07:56;;;;;;;8.10;4.32;;;;;;;;;;4878070;29;20521;-59
2021/09/19 07:10:23;;;;;;;6.38;3.65;;;;;;;;;;4878700;29;20605;-60
2021/09/19 07:12:49;;;;;;;6.55;3.58;;;;;;;;;;4877987;29;20434;-60
2021/09/19 07:15:15;;;;;;;6.78;4.15;;;;;;;;;;4885674;29;20386;-61
2021/09/19 07:17:41;;;;;;;8.10;4.25;;;;;;;;;;4888184;29;20081;-61
2021/09/19 07:20:07;;;;;;;6.57;3.90;;;;;;;;;;4884091;29;20036;-61
2021/09/19 07:22:34;;;;;;;7.70;3.95;;;;;;;;;;4887094;29;20116;-61
2021/09/19 07:25:00;;;;;;;6.38;4.05;;;;;;;;;;4893526;29;20120;-61
2021/09/19 07:27:26;;;;;;;8.88;5.45;;;;;;;;;;4886499;29;20029;-61
2021/09/19 07:29:52;;;;;;;18.02;9.85;;;;;;;;;;4885360;29;20096;-59
2021/09/19 07:32:18;;;;;;;7.15;4.05;;;;;;;;;;4885820;29;20389;-60
2021/09/19 07:34:44;;;;;;;6.45;4.13;;;;;;;;;;4886707;29;20021;-59
2021/09/19 07:37:11;;;;;;;7.63;4.05;;;;;;;;;;4885184;29;20029;-59
2021/09/19 07:39:38;;;;;;;6.78;4.53;;;;;;;;;;4884652;29;20047;-60
2021/09/19 07:42:04;;;;;;;9.65;4.53;;;;;;;;;;4896054;29;20426;-58
2021/09/19 07:44:33;;;;;;;10.90;4.63;;;;;;;;;;4886307;29;20028;-58
2021/09/19 07:46:59;;;;;;;7.32;4.18;;;;;;;;;;4882334;29;20036;-58
2021/09/19 07:49:28;;;;;;;5.95;3.65;;;;;;;;;;4877560;29;20481;-59
2021/09/19 07:51:55;;;;;;;6.32;3.70;;;;;;;;;;4877347;29;20427;-58
2021/09/19 07:54:21;;;;;;;6.93;3.97;;;;;;;;;;4876964;29;20036;-57
2021/09/19 07:56:47;;;;;;;9.18;4.43;;;;;;;;;;4876308;29;20142;-58
2021/09/19 07:59:13;;;;;;;9.98;5.10;;;;;;;;;;4877196;29;20043;-59
2021/09/19 08:01:39;;;;;;;6.47;4.40;;;;;;;;;;4876942;29;20561;-59
2021/09/19 08:04:05;;;;;;;5.72;3.75;;;;;;;;;;4878662;29;20115;-59
2021/09/19 08:06:31;;;;;;;5.38;3.80;;;;;;;;;;4881641;29;20075;-62
2021/09/19 08:08:57;;;;;;;7.15;4.32;;;;;;;;;;4876945;29;20057;-61
2021/09/19 08:11:23;;;;;;;13.73;6.00;;;;;;;;;;4877080;29;20037;-59
2021/09/19 08:13:54;;;;;;;7.13;4.47;;;;;;;;;;4877214;29;20052;-59
2021/09/19 08:16:20;;;;;;;7.63;3.83;;;;;;;;;;4877325;29;20103;-60
2021/09/19 08:18:46;;;;;;;6.38;3.65;;;;;;;;;;4877116;29;20033;-59
2021/09/19 08:21:12;;;;;;;5.82;3.10;;;;;;;;;;4877226;29;20032;-66
2021/09/19 08:23:38;;;;;;;5.15;3.45;;;;;;;;;;4888476;29;20456;-65
2021/09/19 08:26:04;;;;;;;5.22;3.30;;;;;;;;;;4888895;29;20540;-64
2021/09/19 08:28:30;;;;;;;4.72;3.22;;;;;;;;;;4895145;29;20446;-65
2021/09/19 08:30:56;;;;;;;7.95;4.10;;;;;;;;;;4893927;29;20440;-64
2021/09/19 08:33:27;;;;;;;34.38;4.88;;;;;;;;;;4885616;29;20043;-64
2021/09/19 08:35:53;;;;;;;7.15;3.35;;;;;;;;;;4886548;29;20532;-69
2021/09/19 08:38:19;;;;;;;7.07;3.55;;;;;;;;;;4895917;29;20096;-68
2021/09/19 08:40:45;;;;;;;6.72;3.40;;;;;;;;;;4895541;29;20025;-69
2021/09/19 08:43:11;;;;;;;4.90;3.33;;;;;;;;;;4895883;29;20111;-70
2021/09/19 08:45:38;;;;;;;9.05;3.17;;;;;;;;;;4895457;29;20100;-65
2021/09/19 08:48:04;;;;;;;5.28;3.38;;;;;;;;;;4895472;29;20037;-70
2021/09/19 08:50:30;;;;;;;6.72;3.47;;;;;;;;;;4895308;29;20517;-71
2021/09/19 08:52:56;;;;;;;5.47;3.15;;;;;;;;;;4895445;29;20049;-71
2021/09/19 08:55:22;;;;;;;6.75;3.40;;;;;;;;;;4895306;29;20037;-71
2021/09/19 08:57:49;;;;;;;6.78;3.10;;;;;;;;;;4894911;29;20120;-70
2021/09/19 09:00:16;;;;;;;6.28;3.08;;;;;;;;;;4895118;29;20032;-70
2021/09/19 09:02:50;;;;;;;5.78;3.50;;;;;;;;;;4895391;29;20041;-70
2021/09/19 09:05:20;;;;;;;5.45;3.33;;;;;;;;;;4895431;29;20549;-69
2021/09/19 09:07:46;;;;;;;6.72;3.10;;;;;;;;;;4894605;29;20088;-70
2021/09/19 09:10:12;;;;;;;7.30;3.42;;;;;;;;;;4895442;29;20044;-64
2021/09/19 09:12:38;;;;;;;5.80;3.60;;;;;;;;;;4895014;29;20042;-65
2021/09/19 09:15:05;;;;;;;5.47;2.80;;;;;;;;;;4895123;29;20025;-67
2021/09/19 09:17:31;;;;;;;4.68;2.83;;;;;;;;;;4895241;29;20116;-65
2021/09/19 09:19:59;;;;;;;4.35;2.63;;;;;;;;;;4894758;29;20029;-65
2021/09/19 09:22:27;;;;;;;6.40;2.47;;;;;;;;;;4895078;29;20029;-66
2021/09/19 09:25:25;;;;;;;3.47;2.47;;;;;;;;;;4894883;29;20533;-69
2021/09/19 09:27:52;;;;;;;4.82;2.60;;;;;;;;;;4855532;29;20117;-69
2021/09/19 09:30:22;;;;;;;5.20;3.22;;;;;;;;;;4855330;29;20079;-70
2021/09/19 09:32:53;;;;;;;11.20;6.20;;;;;;;;;;4855172;29;20140;-70
2021/09/19 09:35:20;;;;;;;5.68;3.70;;;;;;;;;;4855588;29;20037;-64
2021/09/19 09:37:46;;;;;;;4.15;2.60;;;;;;;;;;4855251;29;20077;-69
2021/09/19 09:40:16;;;;;;;3.88;2.70;;;;;;;;;;4855270;29;20038;-69
2021/09/19 09:43:00;;;;;;;4.80;2.80;;;;;;;;;;4854799;29;20038;-69
2021/09/19 09:45:26;;;;;;;4.60;2.85;;;;;;;;;;4855262;29;20041;-64
2021/09/19 09:47:52;;;;;;;7.05;3.13;;;;;;;;;;4855280;29;20090;-69
2021/09/19 09:50:24;;;;;;;5.40;2.75;;;;;;;;;;4855345;29;20113;-68
2021/09/19 09:52:52;;;;;;;4.78;3.13;;;;;;;;;;4854532;29;20041;-67
2021/09/19 09:55:21;;;;;;;5.03;2.72;;;;;;;;;;4855079;29;20038;-66
2021/09/19 09:58:06;;;;;;;5.45;2.63;;;;;;;;;;4855061;29;20038;-68
2021/09/19 10:00:32;;;;;;;5.30;2.72;;;;;;;;;;4855482;29;20502;-65
2021/09/19 10:02:58;;;;;;;5.55;2.90;;;;;;;;;;4855005;29;20039;-69
2021/09/19 10:05:26;;;;;;;9.38;3.25;;;;;;;;;;4894983;29;20031;-70
2021/09/19 10:07:52;;;;;;;5.18;2.78;;;;;;;;;;4894342;29;20056;-69
2021/09/19 10:10:20;;;;;;;5.38;3.00;;;;;;;;;;4894140;29;20027;-69
2021/09/19 10:12:47;;;;;;;5.03;2.70;;;;;;;;;;4896937;29;20037;-71
2021/09/19 10:15:13;;;;;;;4.70;2.50;;;;;;;;;;4898380;29;20067;-66
2021/09/19 10:17:40;;;;;;;6.55;3.60;;;;;;;;;;4898415;29;20367;-71
2021/09/19 10:20:11;;;;;;;6.95;3.20;;;;;;;;;;4897800;29;20029;-70
2021/09/19 10:22:56;;;;;;;6.32;2.45;;;;;;;;;;4897604;29;20429;-70
2021/09/19 10:25:22;;;;;;;3.65;2.38;;;;;;;;;;4897553;29;20089;-66
2021/09/19 10:27:49;;;;;;;2.90;1.80;;;;;;;;;;4897151;29;20063;-69
2021/09/19 10:30:18;;;;;;;5.15;2.17;;;;;;;;;;4897262;29;20069;-69
2021/09/19 10:32:45;;;;;;;3.97;2.20;;;;;;;;;;4897584;29;20458;-66
2021/09/19 10:35:11;;;;;;;3.30;2.15;;;;;;;;;;4897953;29;20028;-68
2021/09/19 10:37:51;;;;;;;4.05;2.25;;;;;;;;;;4897410;29;20056;-68
2021/09/19 10:40:34;;;;;;;4.35;2.03;;;;;;;;;;4897811;29;20028;-70
2021/09/19 10:43:01;;;;;;;3.35;2.28;;;;;;;;;;4897516;29;20116;-67
2021/09/19 10:45:38;;;;;;;4.28;2.53;;;;;;;;;;4897529;29;20039;-69
2021/09/19 10:48:16;;;;;;;3.55;2.10;;;;;;;;;;4897193;29;20040;-68
2021/09/19 10:50:43;;;;;;;4.97;2.78;;;;;;;;;;4897551;29;20039;-66
2021/09/19 10:53:22;;;;;;;5.90;3.67;;;;;;;;;;4897413;29;20036;-68
2021/09/19 10:55:51;;;;;;;3.70;2.15;;;;;;;;;;4897383;29;20032;-70
2021/09/19 10:58:22;;;;;;;6.85;2.80;;;;;;;;;;4897693;29;20033;-69
2021/09/19 11:01:06;;;;;;;5.50;2.10;;;;;;;;;;4896845;29;20029;-63
2021/09/19 11:03:33;;;;;;;4.45;2.45;;;;;;;;;;4897278;29;20031;-69
2021/09/19 11:05:59;;;;;;;9.38;3.05;;;;;;;;;;4897335;29;20024;-67
2021/09/19 11:08:25;;;;;;;3.97;2.60;;;;;;;;;;4896982;29;20063;-70
2021/09/19 11:10:53;;;;;;;6.18;2.80;;;;;;;;;;4897675;29;20063;-71
2021/09/19 11:13:19;;;;;;;3.85;2.30;;;;;;;;;;4896826;29;20040;-70
2021/09/19 11:15:46;;;;;;;6.45;2.22;;;;;;;;;;4896656;29;20035;-65
2021/09/19 11:18:24;;;;;;;5.22;2.72;;;;;;;;;;4897233;29;20029;-70
2021/09/19 11:21:10;;;;;;;4.78;2.53;;;;;;;;;;4896924;29;20024;-70
2021/09/19 11:23:38;;;;;;;6.07;2.78;;;;;;;;;;4895734;29;20088;-69
2021/09/19 11:26:04;;;;;;;4.70;2.33;;;;;;;;;;4897221;29;20435;-71
2021/09/19 11:28:32;;;;;;;3.42;2.22;;;;;;;;;;4896822;29;20036;-64
2021/09/19 11:30:58;;;;;;;5.88;2.85;;;;;;;;;;4896587;29;20061;-67
2021/09/19 11:33:25;;;;;;;12.38;4.88;;;;;;;;;;4896233;29;20044;-69
2021/09/19 11:35:51;;;;;;;8.32;3.03;;;;;;;;;;4896538;29;20393;-70
2021/09/19 11:38:20;;;;;;;5.00;2.40;;;;;;;;;;4896403;29;20068;-64
2021/09/19 11:40:46;;;;;;;2.55;1.73;;;;;;;;;;4896442;29;20068;-70
2021/09/19 11:43:12;;;;;;;3.53;2.10;;;;;;;;;;4896298;29;20429;-67
2021/09/19 11:45:38;;;;;;;4.20;2.20;;;;;;;;;;4896289;29;20029;-66
2021/09/19 11:48:08;;;;;;;4.97;2.35;;;;;;;;;;4896099;29;20111;-65
2021/09/19 11:50:37;;;;;;;7.78;2.63;;;;;;;;;;4896670;29;20059;-68
2021/09/19 11:53:07;;;;;;;5.80;2.45;;;;;;;;;;4896267;29;20033;-64
2021/09/19 11:55:33;;;;;;;6.28;2.40;;;;;;;;;;4896066;29;20115;-70
2021/09/19 11:58:00;;;;;;;3.05;2.15;;;;;;;;;;4896445;29;20067;-64
2021/09/19 12:00:29;;;;;;;5.10;2.00;;;;;;;;;;4896123;29;20025;-70
2021/09/19 12:02:55;;;;;;;2.97;2.13;;;;;;;;;;4895959;29;20029;-71
2021/09/19 12:05:24;;;;;;;2.72;1.90;;;;;;;;;;4895808;29;20499;-65
2021/09/19 12:07:50;;;;;;;2.65;2.00;;;;;;;;;;4895527;29;20057;-67
2021/09/19 12:10:17;;;;;;;7.38;2.25;;;;;;;;;;4895656;29;20037;-69
2021/09/19 12:12:43;;;;;;;3.45;1.98;;;;;;;;;;4895780;29;20592;-70
2021/09/19 12:15:09;;;;;;;2.65;1.48;;;;;;;;;;4895843;29;20533;-64
2021/09/19 12:17:37;;;;;;;3.13;1.90;;;;;;;;;;4895716;29;20129;-70
2021/09/19 12:20:11;;;;;;;2.75;1.70;;;;;;;;;;4895989;29;20032;-71
2021/09/19 12:22:37;;;;;;;3.47;1.90;;;;;;;;;;4895756;29;20024;-66
2021/09/19 12:25:05;;;;;;;4.45;2.13;;;;;;;;;;4895404;29;20099;-67
2021/09/19 12:27:34;;;;;;;3.13;1.90;;;;;;;;;;4895573;29;20080;-69
2021/09/19 12:30:00;;;;;;;3.55;1.70;;;;;;;;;;4895101;29;20552;-69
2021/09/19 12:32:33;;;;;;;4.13;1.67;;;;;;;;;;4895912;29;20177;-70
2021/09/19 12:35:06;;;;;;;3.88;2.28;;;;;;;;;;4895171;29;20133;-68
2021/09/19 12:37:37;;;;;;;2.92;1.92;;;;;;;;;;4895676;29;20032;-69
2021/09/19 12:40:07;;;;;;;3.22;1.85;;;;;;;;;;4895326;29;20036;-69
2021/09/19 12:42:33;;;;;;;6.13;2.10;;;;;;;;;;4895063;29;20080;-66
2021/09/19 12:44:59;;;;;;;3.30;2.30;;;;;;;;;;4895360;29;20029;-68
2021/09/19 12:47:29;;;;;;;2.78;1.65;;;;;;;;;;4896016;29;20347;-68
2021/09/19 12:49:55;;;;;;;4.80;2.50;;;;;;;;;;4895478;29;20042;-69
2021/09/19 12:52:29;;;;;;;5.40;2.20;;;;;;;;;;4894924;29;20048;-70
2021/09/19 12:54:57;;;;;;;7.63;3.38;;;;;;;;;;4895307;29;20063;-70
2021/09/19 12:57:25;;;;;;;4.95;2.63;;;;;;;;;;4895111;29;20028;-66
2021/09/19 12:59:52;;;;;;;2.63;1.60;;;;;;;;;;4895114;29;20040;-67
2021/09/19 13:02:18;;;;;;;4.65;2.50;;;;;;;;;;4894749;29;20064;-66
2021/09/19 13:04:44;;;;;;;4.50;2.65;;;;;;;;;;4895089;29;20116;-65
2021/09/19 13:07:11;;;;;;;4.70;2.67;;;;;;;;;;4894683;29;20533;-66
2021/09/19 13:09:38;;;;;;;3.20;2.10;;;;;;;;;;4894845;29;20048;-70
2021/09/19 13:12:04;;;;;;;4.72;2.28;;;;;;;;;;4894875;29;20032;-64
2021/09/19 13:14:31;;;;;;;4.18;2.10;;;;;;;;;;4894777;29;20040;-69
2021/09/19 13:16:57;;;;;;;3.10;1.95;;;;;;;;;;4895247;29;20113;-68
2021/09/19 13:19:23;;;;;;;4.20;1.98;;;;;;;;;;4895395;29;20025;-67
2021/09/19 13:21:49;;;;;;;5.40;2.00;;;;;;;;;;4894405;29;20454;-64
2021/09/19 13:24:15;;;;;;;3.50;1.83;;;;;;;;;;4894858;29;20062;-67
2021/09/19 13:26:41;;;;;;;5.43;2.50;;;;;;;;;;4895001;29;20028;-67
2021/09/19 13:29:10;;;;;;;3.50;2.30;;;;;;;;;;4894635;29;20112;-68
2021/09/19 13:31:36;;;;;;;6.28;2.30;;;;;;;;;;4895221;29;20057;-71
2021/09/19 13:34:03;;;;;;;5.55;2.60;;;;;;;;;;4895120;29;20068;-64
2021/09/19 13:36:29;;;;;;;4.57;2.30;;;;;;;;;;4895260;29;20024;-65
2021/09/19 13:38:55;;;;;;;5.35;2.30;;;;;;;;;;4895374;29;20464;-61
2021/09/19 13:41:22;;;;;;;7.15;3.42;;;;;;;;;;4894940;29;20164;-68
2021/09/19 13:43:50;;;;;;;8.18;2.80;;;;;;;;;;4894283;29;20040;-66
2021/09/19 13:46:16;;;;;;;4.20;2.58;;;;;;;;;;4897108;29;20489;-63
2021/09/19 13:48:42;;;;;;;8.70;3.70;;;;;;;;;;4898344;29;20488;-62
2021/09/19 13:51:08;;;;;;;4.28;2.60;;;;;;;;;;4898579;29;20035;-62
2021/09/19 13:53:34;;;;;;;4.07;2.72;;;;;;;;;;4898170;29;20088;-61
2021/09/19 13:56:00;;;;;;;5.63;3.28;;;;;;;;;;4898279;29;20493;-61
2021/09/19 13:58:26;;;;;;;5.63;2.72;;;;;;;;;;4898536;29;20044;-60
2021/09/19 14:00:52;;;;;;;5.03;2.58;;;;;;;;;;4898341;29;20021;-62
2021/09/19 14:03:18;;;;;;;4.60;2.70;;;;;;;;;;4898205;29;20389;-62
2021/09/19 14:05:45;;;;;;;4.15;2.70;;;;;;;;;;4897945;29;20107;-65
2021/09/19 14:08:11;;;;;;;5.65;2.67;;;;;;;;;;4897141;29;20188;-62
2021/09/19 14:10:38;;;;;;;5.45;2.60;;;;;;;;;;4898014;29;20453;-62
2021/09/19 14:13:04;;;;;;;7.50;2.72;;;;;;;;;;4898117;29;20044;-62
2021/09/19 14:15:30;;;;;;;5.55;2.90;;;;;;;;;;4898083;29;20024;-65
2021/09/19 14:17:56;;;;;;;4.40;2.70;;;;;;;;;;4897798;29;20024;-63
2021/09/19 14:20:25;;;;;;;4.28;2.72;;;;;;;;;;4897869;29;20075;-63
2021/09/19 14:22:51;;;;;;;5.03;2.90;;;;;;;;;;4897966;29;20063;-62
2021/09/19 14:25:17;;;;;;;4.40;2.45;;;;;;;;;;4898021;29;20056;-63
2021/09/19 14:27:44;;;;;;;4.55;2.35;;;;;;;;;;4897802;29;20044;-62
2021/09/19 14:30:11;;;;;;;4.90;2.72;;;;;;;;;;4897241;29;20452;-62
2021/09/19 14:32:37;;;;;;;3.90;2.33;;;;;;;;;;4897723;29;20047;-60
2021/09/19 14:35:04;;;;;;;3.72;2.92;;;;;;;;;;4897830;29;20389;-63
2021/09/19 14:37:32;;;;;;;4.78;2.60;;;;;;;;;;4897806;29;20119;-62
2021/09/19 14:39:58;;;;;;;3.58;2.58;;;;;;;;;;4880921;29;20060;-62